sensor_id;sensor_type;location;lat;lon;timestamp;P1;durP1;ratioP1;P2;durP2;ratioP2
32780;SDS011;19136;47.032;15.502;2024-03-25T00:01:30;5.50;;;3.15;;
32780;SDS011;19136;47.032;15.502;2024-03-25T00:03:56;12.55;;;2.75;;
32780;SDS011;19136;47.032;15.502;2024-03-25T00:06:21;5.57;;;2.88;;
32780;SDS011;19136;47.032;15.502;2024-03-25T00:08:46;8.77;;;3.20;;
32780;SDS011;19136;47.032;15.502;2024-03-25T00:11:12;7.20;;;3.15;;
32780;SDS011;19136;47.032;15.502;2024-03-25T00:13:40;7.38;;;2.83;;
32780;SDS011;19136;47.032;15.502;2024-03-25T00:16:05;4.88;;;2.83;;
32780;SDS011;19136;47.032;15.502;2024-03-25T00:18:37;6.35;;;3.08;;
32780;SDS011;19136;47.032;15.502;2024-03-25T00:21:03;5.97;;;3.22;;
32780;SDS011;19136;47.032;15.502;2024-03-25T00:23:28;11.90;;;2.78;;
32780;SDS011;19136;47.032;15.502;2024-03-25T00:25:54;7.15;;;2.67;;
32780;SDS011;19136;47.032;15.502;2024-03-25T00:28:20;6.50;;;2.75;;
32780;SDS011;19136;47.032;15.502;2024-03-25T00:30:45;5.43;;;2.88;;
32780;SDS011;19136;47.032;15.502;2024-03-25T00:33:11;8.40;;;2.92;;
32780;SDS011;19136;47.032;15.502;2024-03-25T00:35:36;6.38;;;2.90;;
32780;SDS011;19136;47.032;15.502;2024-03-25T00:38:02;10.57;;;3.50;;
32780;SDS011;19136;47.032;15.502;2024-03-25T00:40:27;6.53;;;2.95;;
32780;SDS011;19136;47.032;15.502;2024-03-25T00:42:53;6.07;;;2.72;;
32780;SDS011;19136;47.032;15.502;2024-03-25T00:45:18;4.72;;;2.78;;
32780;SDS011;19136;47.032;15.502;2024-03-25T00:47:44;5.80;;;2.88;;
32780;SDS011;19136;47.032;15.502;2024-03-25T00:50:12;5.63;;;2.80;;
32780;SDS011;19136;47.032;15.502;2024-03-25T00:52:38;7.45;;;3.92;;
32780;SDS011;19136;47.032;15.502;2024-03-25T00:55:03;8.05;;;2.53;;
32780;SDS011;19136;47.032;15.502;2024-03-25T00:57:29;8.02;;;2.90;;
32780;SDS011;19136;47.032;15.502;2024-03-25T00:59:55;8.48;;;3.78;;
32780;SDS011;19136;47.032;15.502;2024-03-25T01:02:21;5.78;;;2.25;;
32780;SDS011;19136;47.032;15.502;2024-03-25T01:04:46;6.10;;;2.78;;
32780;SDS011;19136;47.032;15.502;2024-03-25T01:07:11;13.07;;;3.17;;
32780;SDS011;19136;47.032;15.502;2024-03-25T01:09:37;8.30;;;3.70;;
32780;SDS011;19136;47.032;15.502;2024-03-25T01:12:03;6.60;;;2.60;;
32780;SDS011;19136;47.032;15.502;2024-03-25T01:14:28;5.05;;;2.58;;
32780;SDS011;19136;47.032;15.502;2024-03-25T01:16:54;4.72;;;2.60;;
32780;SDS011;19136;47.032;15.502;2024-03-25T01:19:19;8.90;;;2.80;;
32780;SDS011;19136;47.032;15.502;2024-03-25T01:21:46;8.88;;;3.40;;
32780;SDS011;19136;47.032;15.502;2024-03-25T01:24:11;6.55;;;2.72;;
32780;SDS011;19136;47.032;15.502;2024-03-25T01:26:37;3.67;;;2.38;;
32780;SDS011;19136;47.032;15.502;2024-03-25T01:29:05;7.68;;;3.08;;
32780;SDS011;19136;47.032;15.502;2024-03-25T01:31:30;5.72;;;3.17;;
32780;SDS011;19136;47.032;15.502;2024-03-25T01:33:56;7.20;;;3.20;;
32780;SDS011;19136;47.032;15.502;2024-03-25T01:36:21;5.63;;;3.00;;
32780;SDS011;19136;47.032;15.502;2024-03-25T01:38:47;6.18;;;2.75;;
32780;SDS011;19136;47.032;15.502;2024-03-25T01:41:13;5.30;;;2.90;;
32780;SDS011;19136;47.032;15.502;2024-03-25T01:43:40;6.72;;;2.97;;
32780;SDS011;19136;47.032;15.502;2024-03-25T01:46:05;7.70;;;3.00;;
32780;SDS011;19136;47.032;15.502;2024-03-25T01:48:31;7.55;;;2.75;;
32780;SDS011;19136;47.032;15.502;2024-03-25T01:50:57;8.32;;;2.97;;
32780;SDS011;19136;47.032;15.502;2024-03-25T01:53:23;8.25;;;3.38;;
32780;SDS011;19136;47.032;15.502;2024-03-25T01:55:49;8.38;;;3.33;;
32780;SDS011;19136;47.032;15.502;2024-03-25T01:58:19;8.20;;;3.25;;
32780;SDS011;19136;47.032;15.502;2024-03-25T02:00:44;8.20;;;2.90;;
32780;SDS011;19136;47.032;15.502;2024-03-25T02:03:10;10.18;;;3.17;;
32780;SDS011;19136;47.032;15.502;2024-03-25T02:05:35;6.30;;;2.95;;
32780;SDS011;19136;47.032;15.502;2024-03-25T02:08:01;5.50;;;2.90;;
32780;SDS011;19136;47.032;15.502;2024-03-25T02:10:28;14.25;;;3.13;;
32780;SDS011;19136;47.032;15.502;2024-03-25T02:12:54;6.05;;;2.92;;
32780;SDS011;19136;47.032;15.502;2024-03-25T02:15:20;10.50;;;3.30;;
32780;SDS011;19136;47.032;15.502;2024-03-25T02:17:46;7.05;;;3.30;;
32780;SDS011;19136;47.032;15.502;2024-03-25T02:20:11;6.20;;;3.08;;
32780;SDS011;19136;47.032;15.502;2024-03-25T02:22:40;5.28;;;2.95;;
32780;SDS011;19136;47.032;15.502;2024-03-25T02:25:08;8.75;;;3.08;;
32780;SDS011;19136;47.032;15.502;2024-03-25T02:27:34;6.88;;;3.05;;
32780;SDS011;19136;47.032;15.502;2024-03-25T02:30:06;10.60;;;3.58;;
32780;SDS011;19136;47.032;15.502;2024-03-25T02:32:33;7.05;;;3.20;;
32780;SDS011;19136;47.032;15.502;2024-03-25T02:34:58;6.03;;;3.40;;
32780;SDS011;19136;47.032;15.502;2024-03-25T02:37:24;10.15;;;4.15;;
32780;SDS011;19136;47.032;15.502;2024-03-25T02:39:50;5.43;;;2.90;;
32780;SDS011;19136;47.032;15.502;2024-03-25T02:42:16;8.80;;;3.17;;
32780;SDS011;19136;47.032;15.502;2024-03-25T02:44:42;8.50;;;3.38;;
32780;SDS011;19136;47.032;15.502;2024-03-25T02:47:08;6.65;;;3.22;;
32780;SDS011;19136;47.032;15.502;2024-03-25T02:49:34;6.45;;;3.20;;
32780;SDS011;19136;47.032;15.502;2024-03-25T02:52:02;8.00;;;3.67;;
32780;SDS011;19136;47.032;15.502;2024-03-25T02:54:28;10.25;;;2.78;;
32780;SDS011;19136;47.032;15.502;2024-03-25T02:56:53;7.90;;;3.45;;
32780;SDS011;19136;47.032;15.502;2024-03-25T02:59:18;7.60;;;3.45;;
32780;SDS011;19136;47.032;15.502;2024-03-25T03:01:44;5.25;;;2.83;;
32780;SDS011;19136;47.032;15.502;2024-03-25T03:04:09;7.55;;;3.10;;
32780;SDS011;19136;47.032;15.502;2024-03-25T03:06:35;5.70;;;2.72;;
32780;SDS011;19136;47.032;15.502;2024-03-25T03:09:00;5.38;;;3.42;;
32780;SDS011;19136;47.032;15.502;2024-03-25T03:11:26;8.63;;;3.17;;
32780;SDS011;19136;47.032;15.502;2024-03-25T03:13:52;6.93;;;3.40;;
32780;SDS011;19136;47.032;15.502;2024-03-25T03:16:17;7.93;;;3.08;;
32780;SDS011;19136;47.032;15.502;2024-03-25T03:18:43;5.85;;;3.47;;
32780;SDS011;19136;47.032;15.502;2024-03-25T03:21:10;6.47;;;3.60;;
32780;SDS011;19136;47.032;15.502;2024-03-25T03:23:36;8.45;;;3.55;;
32780;SDS011;19136;47.032;15.502;2024-03-25T03:26:02;11.40;;;4.32;;
32780;SDS011;19136;47.032;15.502;2024-03-25T03:28:27;7.22;;;3.60;;
32780;SDS011;19136;47.032;15.502;2024-03-25T03:30:54;11.48;;;4.40;;
32780;SDS011;19136;47.032;15.502;2024-03-25T03:33:25;8.32;;;4.20;;
32780;SDS011;19136;47.032;15.502;2024-03-25T03:35:52;7.20;;;3.58;;
32780;SDS011;19136;47.032;15.502;2024-03-25T03:38:20;8.70;;;3.72;;
32780;SDS011;19136;47.032;15.502;2024-03-25T03:41:07;8.55;;;4.40;;
32780;SDS011;19136;47.032;15.502;2024-03-25T03:43:32;6.63;;;3.55;;
32780;SDS011;19136;47.032;15.502;2024-03-25T03:46:00;8.90;;;3.70;;
32780;SDS011;19136;47.032;15.502;2024-03-25T03:48:25;6.18;;;3.50;;
32780;SDS011;19136;47.032;15.502;2024-03-25T03:51:13;10.23;;;4.35;;
32780;SDS011;19136;47.032;15.502;2024-03-25T03:53:39;9.90;;;4.55;;
32780;SDS011;19136;47.032;15.502;2024-03-25T03:56:08;11.65;;;4.18;;
32780;SDS011;19136;47.032;15.502;2024-03-25T03:58:35;7.90;;;3.97;;
32780;SDS011;19136;47.032;15.502;2024-03-25T04:01:01;9.10;;;4.38;;
32780;SDS011;19136;47.032;15.502;2024-03-25T04:03:26;8.82;;;3.88;;
32780;SDS011;19136;47.032;15.502;2024-03-25T04:05:52;10.45;;;4.07;;
32780;SDS011;19136;47.032;15.502;2024-03-25T04:08:18;8.73;;;3.88;;
32780;SDS011;19136;47.032;15.502;2024-03-25T04:10:44;10.00;;;4.82;;
32780;SDS011;19136;47.032;15.502;2024-03-25T04:13:13;9.30;;;4.13;;
32780;SDS011;19136;47.032;15.502;2024-03-25T04:15:40;6.97;;;3.65;;
32780;SDS011;19136;47.032;15.502;2024-03-25T04:18:06;7.43;;;3.75;;
32780;SDS011;19136;47.032;15.502;2024-03-25T04:20:38;7.00;;;3.55;;
32780;SDS011;19136;47.032;15.502;2024-03-25T04:23:04;6.93;;;3.70;;
32780;SDS011;19136;47.032;15.502;2024-03-25T04:25:32;8.35;;;3.95;;
32780;SDS011;19136;47.032;15.502;2024-03-25T04:27:58;7.13;;;3.58;;
32780;SDS011;19136;47.032;15.502;2024-03-25T04:30:23;9.75;;;4.18;;
32780;SDS011;19136;47.032;15.502;2024-03-25T04:32:49;7.90;;;3.70;;
32780;SDS011;19136;47.032;15.502;2024-03-25T04:35:23;10.32;;;4.00;;
32780;SDS011;19136;47.032;15.502;2024-03-25T04:37:49;9.75;;;4.00;;
32780;SDS011;19136;47.032;15.502;2024-03-25T04:40:15;11.52;;;4.18;;
32780;SDS011;19136;47.032;15.502;2024-03-25T04:42:44;7.97;;;4.03;;
32780;SDS011;19136;47.032;15.502;2024-03-25T04:45:09;7.93;;;3.63;;
32780;SDS011;19136;47.032;15.502;2024-03-25T04:47:39;7.35;;;4.28;;
32780;SDS011;19136;47.032;15.502;2024-03-25T04:50:05;11.43;;;4.80;;
32780;SDS011;19136;47.032;15.502;2024-03-25T04:52:30;17.85;;;4.57;;
32780;SDS011;19136;47.032;15.502;2024-03-25T04:54:56;9.13;;;3.88;;
32780;SDS011;19136;47.032;15.502;2024-03-25T04:57:25;8.68;;;4.18;;
32780;SDS011;19136;47.032;15.502;2024-03-25T04:59:51;12.57;;;4.80;;
32780;SDS011;19136;47.032;15.502;2024-03-25T05:02:17;7.88;;;4.32;;
32780;SDS011;19136;47.032;15.502;2024-03-25T05:04:43;13.27;;;4.90;;
32780;SDS011;19136;47.032;15.502;2024-03-25T05:07:10;11.52;;;4.45;;
32780;SDS011;19136;47.032;15.502;2024-03-25T05:09:37;9.82;;;4.95;;
32780;SDS011;19136;47.032;15.502;2024-03-25T05:12:04;9.65;;;5.30;;
32780;SDS011;19136;47.032;15.502;2024-03-25T05:14:31;9.13;;;4.32;;
32780;SDS011;19136;47.032;15.502;2024-03-25T05:16:57;10.77;;;5.47;;
32780;SDS011;19136;47.032;15.502;2024-03-25T05:19:28;12.50;;;4.30;;
32780;SDS011;19136;47.032;15.502;2024-03-25T05:21:55;10.95;;;4.38;;
32780;SDS011;19136;47.032;15.502;2024-03-25T05:24:21;11.13;;;4.95;;
32780;SDS011;19136;47.032;15.502;2024-03-25T05:26:54;12.55;;;4.63;;
32780;SDS011;19136;47.032;15.502;2024-03-25T05:29:21;11.88;;;6.15;;
32780;SDS011;19136;47.032;15.502;2024-03-25T05:32:00;9.27;;;4.20;;
32780;SDS011;19136;47.032;15.502;2024-03-25T05:34:30;7.43;;;3.95;;
32780;SDS011;19136;47.032;15.502;2024-03-25T05:36:57;10.57;;;4.38;;
32780;SDS011;19136;47.032;15.502;2024-03-25T05:39:24;11.40;;;4.03;;
32780;SDS011;19136;47.032;15.502;2024-03-25T05:41:53;8.65;;;4.28;;
32780;SDS011;19136;47.032;15.502;2024-03-25T05:44:22;7.55;;;4.57;;
32780;SDS011;19136;47.032;15.502;2024-03-25T05:46:50;10.65;;;4.57;;
32780;SDS011;19136;47.032;15.502;2024-03-25T05:49:18;11.60;;;4.00;;
32780;SDS011;19136;47.032;15.502;2024-03-25T05:51:47;11.77;;;5.10;;
32780;SDS011;19136;47.032;15.502;2024-03-25T05:54:18;11.10;;;4.78;;
32780;SDS011;19136;47.032;15.502;2024-03-25T05:56:50;11.98;;;5.68;;
32780;SDS011;19136;47.032;15.502;2024-03-25T05:59:16;9.27;;;4.57;;
32780;SDS011;19136;47.032;15.502;2024-03-25T06:01:42;15.65;;;5.38;;
32780;SDS011;19136;47.032;15.502;2024-03-25T06:04:16;9.25;;;5.22;;
32780;SDS011;19136;47.032;15.502;2024-03-25T06:06:42;20.65;;;5.40;;
32780;SDS011;19136;47.032;15.502;2024-03-25T06:09:09;12.02;;;5.43;;
32780;SDS011;19136;47.032;15.502;2024-03-25T06:11:37;9.65;;;4.70;;
32780;SDS011;19136;47.032;15.502;2024-03-25T06:14:04;10.88;;;5.32;;
32780;SDS011;19136;47.032;15.502;2024-03-25T06:16:31;9.55;;;5.10;;
32780;SDS011;19136;47.032;15.502;2024-03-25T06:18:58;12.55;;;4.72;;
32780;SDS011;19136;47.032;15.502;2024-03-25T06:21:24;15.65;;;5.28;;
32780;SDS011;19136;47.032;15.502;2024-03-25T06:23:51;17.70;;;5.70;;
32780;SDS011;19136;47.032;15.502;2024-03-25T06:26:19;21.92;;;5.45;;
32780;SDS011;19136;47.032;15.502;2024-03-25T06:28:50;18.42;;;6.43;;
32780;SDS011;19136;47.032;15.502;2024-03-25T06:31:16;11.15;;;5.85;;
32780;SDS011;19136;47.032;15.502;2024-03-25T06:34:01;14.57;;;5.82;;
32780;SDS011;19136;47.032;15.502;2024-03-25T06:36:47;15.88;;;6.32;;
32780;SDS011;19136;47.032;15.502;2024-03-25T06:39:13;13.85;;;5.93;;
32780;SDS011;19136;47.032;15.502;2024-03-25T06:41:42;23.38;;;6.63;;
32780;SDS011;19136;47.032;15.502;2024-03-25T06:44:08;16.23;;;5.30;;
32780;SDS011;19136;47.032;15.502;2024-03-25T06:46:34;14.00;;;5.72;;
32780;SDS011;19136;47.032;15.502;2024-03-25T06:48:59;12.32;;;5.60;;
32780;SDS011;19136;47.032;15.502;2024-03-25T06:51:25;16.90;;;5.13;;
32780;SDS011;19136;47.032;15.502;2024-03-25T06:53:51;11.75;;;5.10;;
32780;SDS011;19136;47.032;15.502;2024-03-25T06:56:18;17.45;;;6.28;;
32780;SDS011;19136;47.032;15.502;2024-03-25T06:58:44;15.13;;;5.97;;
32780;SDS011;19136;47.032;15.502;2024-03-25T07:01:09;14.90;;;5.60;;
32780;SDS011;19136;47.032;15.502;2024-03-25T07:03:40;19.65;;;5.90;;
32780;SDS011;19136;47.032;15.502;2024-03-25T07:06:06;17.42;;;6.20;;
32780;SDS011;19136;47.032;15.502;2024-03-25T07:08:32;12.38;;;6.28;;
32780;SDS011;19136;47.032;15.502;2024-03-25T07:10:58;12.75;;;6.32;;
32780;SDS011;19136;47.032;15.502;2024-03-25T07:13:25;9.73;;;6.20;;
32780;SDS011;19136;47.032;15.502;2024-03-25T07:15:51;12.70;;;5.57;;
32780;SDS011;19136;47.032;15.502;2024-03-25T07:18:18;12.13;;;6.03;;
32780;SDS011;19136;47.032;15.502;2024-03-25T07:20:46;15.18;;;5.68;;
32780;SDS011;19136;47.032;15.502;2024-03-25T07:23:12;10.00;;;5.32;;
32780;SDS011;19136;47.032;15.502;2024-03-25T07:25:38;12.77;;;6.30;;
32780;SDS011;19136;47.032;15.502;2024-03-25T07:28:05;13.88;;;4.63;;
32780;SDS011;19136;47.032;15.502;2024-03-25T07:30:31;11.15;;;5.47;;
32780;SDS011;19136;47.032;15.502;2024-03-25T07:32:57;17.50;;;5.60;;
32780;SDS011;19136;47.032;15.502;2024-03-25T07:35:24;16.10;;;5.05;;
32780;SDS011;19136;47.032;15.502;2024-03-25T07:37:51;11.82;;;4.60;;
32780;SDS011;19136;47.032;15.502;2024-03-25T07:40:19;12.05;;;4.25;;
32780;SDS011;19136;47.032;15.502;2024-03-25T07:42:46;10.27;;;3.60;;
32780;SDS011;19136;47.032;15.502;2024-03-25T07:45:16;6.18;;;3.30;;
32780;SDS011;19136;47.032;15.502;2024-03-25T07:47:41;6.20;;;2.70;;
32780;SDS011;19136;47.032;15.502;2024-03-25T07:50:08;6.03;;;2.47;;
32780;SDS011;19136;47.032;15.502;2024-03-25T07:52:33;9.05;;;2.72;;
32780;SDS011;19136;47.032;15.502;2024-03-25T07:55:01;4.63;;;2.70;;
32780;SDS011;19136;47.032;15.502;2024-03-25T07:57:27;5.05;;;2.75;;
32780;SDS011;19136;47.032;15.502;2024-03-25T07:59:52;6.20;;;2.78;;
32780;SDS011;19136;47.032;15.502;2024-03-25T08:02:18;5.22;;;2.70;;
32780;SDS011;19136;47.032;15.502;2024-03-25T08:04:43;5.03;;;2.47;;
32780;SDS011;19136;47.032;15.502;2024-03-25T08:07:09;4.45;;;2.30;;
32780;SDS011;19136;47.032;15.502;2024-03-25T08:09:35;9.02;;;2.97;;
32780;SDS011;19136;47.032;15.502;2024-03-25T08:12:00;2.90;;;1.42;;
32780;SDS011;19136;47.032;15.502;2024-03-25T08:14:27;5.65;;;2.13;;
32780;SDS011;19136;47.032;15.502;2024-03-25T08:16:52;1.50;;;0.90;;
32780;SDS011;19136;47.032;15.502;2024-03-25T08:19:18;2.63;;;1.23;;
32780;SDS011;19136;47.032;15.502;2024-03-25T08:21:43;2.55;;;1.20;;
32780;SDS011;19136;47.032;15.502;2024-03-25T08:24:09;1.10;;;0.70;;
32780;SDS011;19136;47.032;15.502;2024-03-25T08:26:34;2.40;;;1.27;;
32780;SDS011;19136;47.032;15.502;2024-03-25T08:28:59;3.72;;;1.35;;
32780;SDS011;19136;47.032;15.502;2024-03-25T08:31:25;4.00;;;1.65;;
32780;SDS011;19136;47.032;15.502;2024-03-25T08:33:50;2.47;;;1.38;;
32780;SDS011;19136;47.032;15.502;2024-03-25T08:36:16;4.50;;;1.40;;
32780;SDS011;19136;47.032;15.502;2024-03-25T08:38:41;1.98;;;1.13;;
32780;SDS011;19136;47.032;15.502;2024-03-25T08:41:09;2.85;;;1.17;;
32780;SDS011;19136;47.032;15.502;2024-03-25T08:43:35;3.20;;;1.33;;
32780;SDS011;19136;47.032;15.502;2024-03-25T08:46:00;4.35;;;1.30;;
32780;SDS011;19136;47.032;15.502;2024-03-25T08:48:26;4.20;;;1.17;;
32780;SDS011;19136;47.032;15.502;2024-03-25T08:50:52;4.70;;;0.98;;
32780;SDS011;19136;47.032;15.502;2024-03-25T08:53:17;5.75;;;1.10;;
32780;SDS011;19136;47.032;15.502;2024-03-25T08:55:45;2.25;;;0.88;;
32780;SDS011;19136;47.032;15.502;2024-03-25T08:58:14;2.15;;;0.80;;
32780;SDS011;19136;47.032;15.502;2024-03-25T09:00:39;2.05;;;0.77;;
32780;SDS011;19136;47.032;15.502;2024-03-25T09:03:05;2.13;;;0.60;;
32780;SDS011;19136;47.032;15.502;2024-03-25T09:05:30;2.53;;;0.90;;
32780;SDS011;19136;47.032;15.502;2024-03-25T09:07:57;2.03;;;0.75;;
32780;SDS011;19136;47.032;15.502;2024-03-25T09:10:24;2.90;;;0.80;;
32780;SDS011;19136;47.032;15.502;2024-03-25T09:13:08;1.52;;;0.77;;
32780;SDS011;19136;47.032;15.502;2024-03-25T09:15:33;0.70;;;0.52;;
32780;SDS011;19136;47.032;15.502;2024-03-25T09:17:59;0.50;;;0.30;;
32780;SDS011;19136;47.032;15.502;2024-03-25T09:20:25;1.92;;;0.50;;
32780;SDS011;19136;47.032;15.502;2024-03-25T09:22:51;4.68;;;0.50;;
32780;SDS011;19136;47.032;15.502;2024-03-25T09:25:17;1.92;;;0.75;;
32780;SDS011;19136;47.032;15.502;2024-03-25T09:27:46;1.17;;;0.68;;
32780;SDS011;19136;47.032;15.502;2024-03-25T09:30:12;3.15;;;0.60;;
32780;SDS011;19136;47.032;15.502;2024-03-25T09:32:39;3.85;;;0.57;;
32780;SDS011;19136;47.032;15.502;2024-03-25T09:35:05;3.08;;;0.85;;
32780;SDS011;19136;47.032;15.502;2024-03-25T09:37:30;0.77;;;0.40;;
32780;SDS011;19136;47.032;15.502;2024-03-25T09:39:59;0.95;;;0.70;;
32780;SDS011;19136;47.032;15.502;2024-03-25T09:42:28;1.23;;;0.50;;
32780;SDS011;19136;47.032;15.502;2024-03-25T09:47:22;3.55;;;0.70;;
32780;SDS011;19136;47.032;15.502;2024-03-25T09:49:49;2.28;;;0.70;;
32780;SDS011;19136;47.032;15.502;2024-03-25T09:52:15;1.67;;;0.40;;
32780;SDS011;19136;47.032;15.502;2024-03-25T09:54:41;1.00;;;0.45;;
32780;SDS011;19136;47.032;15.502;2024-03-25T09:57:07;1.45;;;0.60;;
32780;SDS011;19136;47.032;15.502;2024-03-25T09:59:33;0.85;;;0.47;;
32780;SDS011;19136;47.032;15.502;2024-03-25T10:01:59;0.95;;;0.40;;
32780;SDS011;19136;47.032;15.502;2024-03-25T10:04:24;1.52;;;0.50;;
32780;SDS011;19136;47.032;15.502;2024-03-25T10:06:50;1.00;;;0.55;;
32780;SDS011;19136;47.032;15.502;2024-03-25T10:09:22;0.77;;;0.60;;
32780;SDS011;19136;47.032;15.502;2024-03-25T10:11:48;4.40;;;0.50;;
32780;SDS011;19136;47.032;15.502;2024-03-25T10:14:17;1.40;;;0.60;;
32780;SDS011;19136;47.032;15.502;2024-03-25T10:16:43;3.33;;;0.70;;
32780;SDS011;19136;47.032;15.502;2024-03-25T10:19:09;1.83;;;0.65;;
32780;SDS011;19136;47.032;15.502;2024-03-25T10:21:34;2.67;;;0.52;;
32780;SDS011;19136;47.032;15.502;2024-03-25T10:24:00;1.70;;;0.70;;
32780;SDS011;19136;47.032;15.502;2024-03-25T10:26:29;0.73;;;0.50;;
32780;SDS011;19136;47.032;15.502;2024-03-25T10:29:03;1.50;;;0.70;;
32780;SDS011;19136;47.032;15.502;2024-03-25T10:31:29;1.15;;;0.70;;
32780;SDS011;19136;47.032;15.502;2024-03-25T10:33:56;2.60;;;0.70;;
32780;SDS011;19136;47.032;15.502;2024-03-25T10:36:22;1.42;;;0.75;;
32780;SDS011;19136;47.032;15.502;2024-03-25T10:38:53;2.38;;;0.70;;
32780;SDS011;19136;47.032;15.502;2024-03-25T10:41:19;1.05;;;0.50;;
32780;SDS011;19136;47.032;15.502;2024-03-25T10:43:46;3.10;;;0.60;;
32780;SDS011;19136;47.032;15.502;2024-03-25T10:46:12;1.35;;;0.60;;
32780;SDS011;19136;47.032;15.502;2024-03-25T10:48:39;1.85;;;0.70;;
32780;SDS011;19136;47.032;15.502;2024-03-25T10:51:05;1.02;;;0.52;;
32780;SDS011;19136;47.032;15.502;2024-03-25T10:53:32;4.07;;;0.70;;
32780;SDS011;19136;47.032;15.502;2024-03-25T10:56:00;2.38;;;0.85;;
32780;SDS011;19136;47.032;15.502;2024-03-25T10:58:26;1.00;;;0.60;;
32780;SDS011;19136;47.032;15.502;2024-03-25T11:00:52;3.30;;;0.80;;
32780;SDS011;19136;47.032;15.502;2024-03-25T11:03:22;1.40;;;0.60;;
32780;SDS011;19136;47.032;15.502;2024-03-25T11:05:48;0.85;;;0.50;;
32780;SDS011;19136;47.032;15.502;2024-03-25T11:08:15;3.00;;;0.95;;
32780;SDS011;19136;47.032;15.502;2024-03-25T11:10:40;4.72;;;0.90;;
32780;SDS011;19136;47.032;15.502;2024-03-25T11:13:10;1.58;;;0.73;;
32780;SDS011;19136;47.032;15.502;2024-03-25T11:15:43;3.58;;;0.73;;
32780;SDS011;19136;47.032;15.502;2024-03-25T11:18:15;1.27;;;0.60;;
32780;SDS011;19136;47.032;15.502;2024-03-25T11:20:41;1.42;;;0.50;;
32780;SDS011;19136;47.032;15.502;2024-03-25T11:23:10;2.45;;;0.65;;
32780;SDS011;19136;47.032;15.502;2024-03-25T11:25:36;1.20;;;0.68;;
32780;SDS011;19136;47.032;15.502;2024-03-25T11:28:02;0.98;;;0.60;;
32780;SDS011;19136;47.032;15.502;2024-03-25T11:30:28;1.58;;;0.70;;
32780;SDS011;19136;47.032;15.502;2024-03-25T11:32:55;1.30;;;0.68;;
32780;SDS011;19136;47.032;15.502;2024-03-25T11:35:20;3.28;;;0.80;;
32780;SDS011;19136;47.032;15.502;2024-03-25T11:37:48;3.25;;;0.40;;
32780;SDS011;19136;47.032;15.502;2024-03-25T11:40:15;4.53;;;0.70;;
32780;SDS011;19136;47.032;15.502;2024-03-25T11:42:44;2.03;;;0.77;;
32780;SDS011;19136;47.032;15.502;2024-03-25T11:45:16;1.30;;;0.70;;
32780;SDS011;19136;47.032;15.502;2024-03-25T11:47:42;1.55;;;0.68;;
32780;SDS011;19136;47.032;15.502;2024-03-25T11:50:09;1.75;;;0.75;;
32780;SDS011;19136;47.032;15.502;2024-03-25T11:52:34;1.58;;;0.70;;
32780;SDS011;19136;47.032;15.502;2024-03-25T11:55:00;2.22;;;0.80;;
32780;SDS011;19136;47.032;15.502;2024-03-25T11:57:26;2.85;;;0.90;;
32780;SDS011;19136;47.032;15.502;2024-03-25T11:59:51;4.28;;;0.70;;
32780;SDS011;19136;47.032;15.502;2024-03-25T12:02:17;1.33;;;0.60;;
32780;SDS011;19136;47.032;15.502;2024-03-25T12:04:47;1.15;;;0.70;;
32780;SDS011;19136;47.032;15.502;2024-03-25T12:07:13;1.27;;;0.73;;
32780;SDS011;19136;47.032;15.502;2024-03-25T12:09:39;1.15;;;0.63;;
32780;SDS011;19136;47.032;15.502;2024-03-25T12:12:23;1.40;;;0.63;;
32780;SDS011;19136;47.032;15.502;2024-03-25T12:14:49;1.52;;;0.80;;
32780;SDS011;19136;47.032;15.502;2024-03-25T12:17:15;2.75;;;0.82;;
32780;SDS011;19136;47.032;15.502;2024-03-25T12:20:07;2.35;;;0.77;;
32780;SDS011;19136;47.032;15.502;2024-03-25T12:22:41;1.45;;;0.77;;
32780;SDS011;19136;47.032;15.502;2024-03-25T12:25:07;1.08;;;0.65;;
32780;SDS011;19136;47.032;15.502;2024-03-25T12:27:33;3.42;;;0.80;;
32780;SDS011;19136;47.032;15.502;2024-03-25T12:30:05;2.88;;;0.70;;
32780;SDS011;19136;47.032;15.502;2024-03-25T12:32:35;1.05;;;0.60;;
32780;SDS011;19136;47.032;15.502;2024-03-25T12:35:01;1.63;;;0.70;;
32780;SDS011;19136;47.032;15.502;2024-03-25T12:37:26;4.93;;;1.33;;
32780;SDS011;19136;47.032;15.502;2024-03-25T12:39:52;4.57;;;0.93;;
32780;SDS011;19136;47.032;15.502;2024-03-25T12:42:17;4.82;;;0.85;;
32780;SDS011;19136;47.032;15.502;2024-03-25T12:44:43;1.15;;;0.70;;
32780;SDS011;19136;47.032;15.502;2024-03-25T12:47:09;1.23;;;0.80;;
32780;SDS011;19136;47.032;15.502;2024-03-25T12:49:34;1.15;;;0.80;;
32780;SDS011;19136;47.032;15.502;2024-03-25T12:52:00;0.95;;;0.60;;
32780;SDS011;19136;47.032;15.502;2024-03-25T12:54:25;1.25;;;0.85;;
32780;SDS011;19136;47.032;15.502;2024-03-25T12:56:51;1.20;;;0.80;;
32780;SDS011;19136;47.032;15.502;2024-03-25T12:59:16;4.47;;;0.90;;
32780;SDS011;19136;47.032;15.502;2024-03-25T13:01:42;0.88;;;0.77;;
32780;SDS011;19136;47.032;15.502;2024-03-25T13:04:07;3.05;;;0.90;;
32780;SDS011;19136;47.032;15.502;2024-03-25T13:06:33;2.40;;;0.88;;
32780;SDS011;19136;47.032;15.502;2024-03-25T13:08:58;0.88;;;0.75;;
32780;SDS011;19136;47.032;15.502;2024-03-25T13:11:24;1.70;;;0.90;;
32780;SDS011;19136;47.032;15.502;2024-03-25T13:13:49;2.25;;;1.05;;
32780;SDS011;19136;47.032;15.502;2024-03-25T13:16:15;5.88;;;0.80;;
32780;SDS011;19136;47.032;15.502;2024-03-25T13:18:40;1.30;;;0.90;;
32780;SDS011;19136;47.032;15.502;2024-03-25T13:21:05;2.05;;;0.90;;
32780;SDS011;19136;47.032;15.502;2024-03-25T13:23:31;1.98;;;0.90;;
32780;SDS011;19136;47.032;15.502;2024-03-25T13:25:57;3.88;;;1.10;;
32780;SDS011;19136;47.032;15.502;2024-03-25T13:28:22;4.28;;;1.00;;
32780;SDS011;19136;47.032;15.502;2024-03-25T13:30:48;1.63;;;0.70;;
32780;SDS011;19136;47.032;15.502;2024-03-25T13:33:13;1.88;;;0.82;;
32780;SDS011;19136;47.032;15.502;2024-03-25T13:35:38;1.52;;;0.90;;
32780;SDS011;19136;47.032;15.502;2024-03-25T13:38:04;1.17;;;0.80;;
32780;SDS011;19136;47.032;15.502;2024-03-25T13:40:29;2.95;;;0.80;;
32780;SDS011;19136;47.032;15.502;2024-03-25T13:42:55;2.60;;;0.90;;
32780;SDS011;19136;47.032;15.502;2024-03-25T13:45:20;2.30;;;0.77;;
32780;SDS011;19136;47.032;15.502;2024-03-25T13:47:46;1.23;;;0.63;;
32780;SDS011;19136;47.032;15.502;2024-03-25T13:50:11;3.13;;;0.90;;
32780;SDS011;19136;47.032;15.502;2024-03-25T13:52:37;2.05;;;0.85;;
32780;SDS011;19136;47.032;15.502;2024-03-25T13:55:02;4.38;;;0.90;;
32780;SDS011;19136;47.032;15.502;2024-03-25T13:57:28;2.28;;;0.70;;
32780;SDS011;19136;47.032;15.502;2024-03-25T13:59:54;1.33;;;0.70;;
32780;SDS011;19136;47.032;15.502;2024-03-25T14:02:19;3.15;;;0.60;;
32780;SDS011;19136;47.032;15.502;2024-03-25T14:04:45;1.50;;;0.60;;
32780;SDS011;19136;47.032;15.502;2024-03-25T14:07:11;2.95;;;0.70;;
32780;SDS011;19136;47.032;15.502;2024-03-25T14:09:36;1.25;;;0.60;;
32780;SDS011;19136;47.032;15.502;2024-03-25T14:12:02;4.95;;;0.60;;
32780;SDS011;19136;47.032;15.502;2024-03-25T14:14:29;4.90;;;0.60;;
32780;SDS011;19136;47.032;15.502;2024-03-25T14:16:54;0.90;;;0.50;;
32780;SDS011;19136;47.032;15.502;2024-03-25T14:19:22;1.63;;;0.60;;
32780;SDS011;19136;47.032;15.502;2024-03-25T14:21:48;1.55;;;0.60;;
32780;SDS011;19136;47.032;15.502;2024-03-25T14:24:13;0.82;;;0.45;;
32780;SDS011;19136;47.032;15.502;2024-03-25T14:26:39;1.27;;;0.85;;
32780;SDS011;19136;47.032;15.502;2024-03-25T14:29:04;1.08;;;0.50;;
32780;SDS011;19136;47.032;15.502;2024-03-25T14:31:30;1.00;;;0.50;;